Foxridge, Maryland
Current Conditions -  °F | °C
As of 12:54 AM on Monday 20 Oct 2014 (Local Time) from KBWI Reporting Station
Scattered Clouds Scattered Clouds  
Wind Chill:   Ceiling: Unl
Heat Index:   Visibility: 10mi
Dew Point:   Wind: 3mph
Humidity: 86%   Direction: 260°W
Pressure: 30.11"   Gusts: NA
Location:  39.3744°N, 76.8156°W
Report Text: KBWI 200454Z 26003KT 10SM SCT250 05/03 A3011 RMK AO2 SLP196 T00500028 401500033
Loading
Personal Weather Stations






























Interactive Weather Map
Tropical Storm Tracking
New forecast layout! Learn more

10-Day Weather Forecast

Advertisements
Track Severe Weather on mobile